N240AT SPJC-SPZO
Flight info
| Callsign | N240AT |
|---|---|
| Flight time | 0h 57m |
| Altitude | 36000 |
| Route | PAKOL5 PAKOL UM668 POVLO DARKI DARK1A |
| Aircraft | B738/M-V/N |
Departure
| Time | 2026-04-25 03:32 |
|---|---|
| Airport | Jorge Chávez International Airport (SPJC) |
Arrival
| Time | 2026-04-25 04:29 |
|---|---|
| Airport | Alejandro Velasco Astete International Airport (SPZO) |
| Time | Latitude | Longitude | Altitude | Speed | Heading |
|---|---|---|---|---|---|
| 2026-04-25 03:18 | -12.02443 | -77.11632 | 126 ft | 0 kts | 65° |
| 2026-04-25 03:20 | -12.02443 | -77.11631 | 126 ft | 0 kts | 65° |
| 2026-04-25 03:20 | -12.02438 | -77.11626 | 126 ft | 5 kts | 33° |
| 2026-04-25 03:20 | -12.02433 | -77.11690 | 126 ft | 10 kts | 285° |
| 2026-04-25 03:20 | -12.02358 | -77.11662 | 126 ft | 20 kts | 61° |
| 2026-04-25 03:21 | -12.02235 | -77.11667 | 126 ft | 19 kts | 334° |
| 2026-04-25 03:21 | -12.02118 | -77.11725 | 126 ft | 3 kts | 334° |
| 2026-04-25 03:28 | -12.02090 | -77.11739 | 126 ft | 19 kts | 334° |
| 2026-04-25 03:28 | -12.01926 | -77.11820 | 126 ft | 22 kts | 334° |
| 2026-04-25 03:29 | -12.01796 | -77.11805 | 127 ft | 19 kts | 355° |
| 2026-04-25 03:29 | -12.01647 | -77.11873 | 127 ft | 36 kts | 334° |
| 2026-04-25 03:29 | -12.01378 | -77.12007 | 127 ft | 43 kts | 335° |
| 2026-04-25 03:29 | -12.01204 | -77.12161 | 127 ft | 32 kts | 324° |
| 2026-04-25 03:30 | -12.01007 | -77.12264 | 127 ft | 32 kts | 333° |
| 2026-04-25 03:30 | -12.00836 | -77.12277 | 127 ft | 23 kts | 57° |
| 2026-04-25 03:30 | -12.00821 | -77.12118 | 127 ft | 26 kts | 133° |
| 2026-04-25 03:30 | -12.01000 | -77.12017 | 127 ft | 6 kts | 154° |
| 2026-04-25 03:31 | -12.01001 | -77.12017 | 127 ft | 0 kts | 154° |
| 2026-04-25 03:31 | -12.01098 | -77.11969 | 127 ft | 56 kts | 155° |
| 2026-04-25 03:31 | -12.01802 | -77.11624 | 139 ft | 159 kts | 155° |
| 2026-04-25 03:31 | -12.02945 | -77.11080 | 711 ft | 203 kts | 155° |
| 2026-04-25 03:32 | -12.04324 | -77.10525 | 1767 ft | 228 kts | 160° |
| 2026-04-25 03:32 | -12.05796 | -77.09985 | 2653 ft | 229 kts | 158° |
| 2026-04-25 03:32 | -12.07280 | -77.09327 | 3362 ft | 234 kts | 152° |
| 2026-04-25 03:32 | -12.08758 | -77.08531 | 3964 ft | 247 kts | 150° |
| 2026-04-25 03:33 | -12.10277 | -77.07678 | 4719 ft | 252 kts | 150° |
| 2026-04-25 03:33 | -12.11819 | -77.06834 | 5454 ft | 256 kts | 151° |
| 2026-04-25 03:33 | -12.13448 | -77.05959 | 5860 ft | 268 kts | 151° |
| 2026-04-25 03:33 | -12.15128 | -77.05071 | 5974 ft | 277 kts | 152° |
| 2026-04-25 03:34 | -12.16892 | -77.04159 | 6057 ft | 290 kts | 153° |
| 2026-04-25 03:34 | -12.18724 | -77.03251 | 6692 ft | 293 kts | 153° |
| 2026-04-25 03:34 | -12.20552 | -77.02354 | 7642 ft | 291 kts | 153° |
| 2026-04-25 03:34 | -12.22366 | -77.01460 | 8523 ft | 295 kts | 152° |
| 2026-04-25 03:35 | -12.24151 | -77.00307 | 8931 ft | 314 kts | 137° |
| 2026-04-25 03:35 | -12.25433 | -76.98531 | 9760 ft | 306 kts | 117° |
| 2026-04-25 03:35 | -12.26333 | -76.96618 | 10448 ft | 307 kts | 113° |
| 2026-04-25 03:35 | -12.27225 | -76.94566 | 10987 ft | 323 kts | 113° |
| 2026-04-25 03:36 | -12.28183 | -76.92425 | 11468 ft | 340 kts | 114° |
| 2026-04-25 03:36 | -12.29215 | -76.90223 | 12404 ft | 345 kts | 115° |
| 2026-04-25 03:36 | -12.30260 | -76.88038 | 13577 ft | 346 kts | 115° |
| 2026-04-25 03:36 | -12.31309 | -76.85862 | 14533 ft | 349 kts | 115° |
| 2026-04-25 03:37 | -12.32393 | -76.83623 | 15453 ft | 353 kts | 115° |
| 2026-04-25 03:37 | -12.33845 | -76.80623 | 16804 ft | 358 kts | 115° |
| 2026-04-25 03:37 | -12.34570 | -76.79124 | 17366 ft | 361 kts | 115° |
| 2026-04-25 03:37 | -12.35692 | -76.76799 | 18161 ft | 366 kts | 115° |
| 2026-04-25 03:38 | -12.36815 | -76.74473 | 18998 ft | 369 kts | 114° |
| 2026-04-25 03:38 | -12.37953 | -76.72112 | 19869 ft | 374 kts | 114° |
| 2026-04-25 03:38 | -12.39103 | -76.69728 | 20718 ft | 379 kts | 114° |
| 2026-04-25 03:38 | -12.40267 | -76.67316 | 21569 ft | 382 kts | 114° |
| 2026-04-25 03:39 | -12.41448 | -76.64869 | 22380 ft | 387 kts | 114° |
| 2026-04-25 03:39 | -12.42644 | -76.62386 | 23136 ft | 393 kts | 114° |
| 2026-04-25 03:39 | -12.43849 | -76.59892 | 23864 ft | 397 kts | 114° |
| 2026-04-25 03:39 | -12.45085 | -76.57345 | 24637 ft | 401 kts | 114° |
| 2026-04-25 03:40 | -12.46339 | -76.54763 | 25345 ft | 406 kts | 114° |
| 2026-04-25 03:40 | -12.47592 | -76.52183 | 26030 ft | 411 kts | 114° |
| 2026-04-25 03:40 | -12.48868 | -76.49552 | 26671 ft | 416 kts | 114° |
| 2026-04-25 03:40 | -12.50156 | -76.46896 | 27370 ft | 420 kts | 114° |
| 2026-04-25 03:41 | -12.51448 | -76.44229 | 28060 ft | 424 kts | 114° |
| 2026-04-25 03:41 | -12.52768 | -76.41504 | 28707 ft | 428 kts | 114° |
| 2026-04-25 03:41 | -12.54087 | -76.38780 | 29309 ft | 433 kts | 114° |
| 2026-04-25 03:41 | -12.55430 | -76.36006 | 29969 ft | 437 kts | 114° |
| 2026-04-25 03:42 | -12.56771 | -76.33236 | 30774 ft | 436 kts | 113° |
| 2026-04-25 03:42 | -12.58094 | -76.30505 | 31740 ft | 432 kts | 113° |
| 2026-04-25 03:42 | -12.59434 | -76.27738 | 32553 ft | 430 kts | 113° |
| 2026-04-25 03:42 | -12.60750 | -76.25016 | 33365 ft | 429 kts | 113° |
| 2026-04-25 03:43 | -12.62068 | -76.22289 | 34324 ft | 426 kts | 112° |
| 2026-04-25 03:43 | -12.63355 | -76.19626 | 35258 ft | 421 kts | 112° |
| 2026-04-25 03:43 | -12.64653 | -76.16937 | 35607 ft | 426 kts | 112° |
| 2026-04-25 03:43 | -12.65968 | -76.14209 | 35650 ft | 424 kts | 112° |
| 2026-04-25 03:44 | -12.68550 | -76.08851 | 35691 ft | 419 kts | 112° |
| 2026-04-25 03:44 | -12.71139 | -76.03469 | 35684 ft | 421 kts | 112° |
| 2026-04-25 03:45 | -12.73657 | -75.98123 | 35717 ft | 418 kts | 109° |
| 2026-04-25 03:45 | -12.75480 | -75.92535 | 35754 ft | 414 kts | 102° |
| 2026-04-25 03:46 | -12.76860 | -75.86829 | 35793 ft | 417 kts | 100° |
| 2026-04-25 03:46 | -12.77528 | -75.83896 | 35799 ft | 431 kts | 100° |
| 2026-04-25 03:46 | -12.78213 | -75.80875 | 35805 ft | 444 kts | 100° |
| 2026-04-25 03:47 | -12.79655 | -75.74604 | 35822 ft | 450 kts | 100° |
| 2026-04-25 03:47 | -12.81105 | -75.68398 | 35850 ft | 448 kts | 101° |
| 2026-04-25 03:48 | -12.82549 | -75.62234 | 35870 ft | 448 kts | 101° |
| 2026-04-25 03:48 | -12.84002 | -75.56020 | 35887 ft | 450 kts | 101° |
| 2026-04-25 03:49 | -12.85454 | -75.49792 | 35929 ft | 449 kts | 101° |
| 2026-04-25 03:49 | -12.86894 | -75.43606 | 35940 ft | 450 kts | 100° |
| 2026-04-25 03:50 | -12.88340 | -75.37392 | 35935 ft | 447 kts | 101° |
| 2026-04-25 03:50 | -12.89772 | -75.31226 | 35954 ft | 448 kts | 100° |
| 2026-04-25 03:51 | -12.91205 | -75.25050 | 35962 ft | 448 kts | 101° |
| 2026-04-25 03:51 | -12.92639 | -75.18864 | 35975 ft | 447 kts | 100° |
| 2026-04-25 03:52 | -12.94084 | -75.12622 | 35998 ft | 449 kts | 101° |
| 2026-04-25 03:52 | -12.95517 | -75.06422 | 36022 ft | 448 kts | 101° |
| 2026-04-25 03:53 | -12.96941 | -75.00261 | 36040 ft | 446 kts | 100° |
| 2026-04-25 03:53 | -12.98367 | -74.94076 | 36022 ft | 448 kts | 101° |
| 2026-04-25 03:54 | -12.99792 | -74.87901 | 35998 ft | 447 kts | 101° |
| 2026-04-25 03:54 | -13.01227 | -74.81668 | 35963 ft | 449 kts | 100° |
| 2026-04-25 03:55 | -13.02662 | -74.75439 | 35940 ft | 449 kts | 101° |
| 2026-04-25 03:55 | -13.04090 | -74.69229 | 35924 ft | 450 kts | 101° |
| 2026-04-25 03:56 | -13.05515 | -74.63026 | 35927 ft | 450 kts | 101° |
| 2026-04-25 03:56 | -13.06947 | -74.56783 | 35900 ft | 451 kts | 101° |
| 2026-04-25 03:57 | -13.08375 | -74.50544 | 35885 ft | 451 kts | 101° |
| 2026-04-25 03:57 | -13.09805 | -74.44286 | 35875 ft | 451 kts | 101° |
| 2026-04-25 03:58 | -13.11231 | -74.38052 | 35870 ft | 451 kts | 101° |
| 2026-04-25 03:58 | -13.12658 | -74.31800 | 35846 ft | 451 kts | 100° |
| 2026-04-25 03:59 | -13.14088 | -74.25527 | 35833 ft | 452 kts | 101° |
| 2026-04-25 03:59 | -13.15499 | -74.19318 | 35812 ft | 453 kts | 101° |
| 2026-04-25 04:00 | -13.16929 | -74.13032 | 35800 ft | 454 kts | 101° |
| 2026-04-25 04:00 | -13.18357 | -74.06749 | 35793 ft | 454 kts | 101° |
| 2026-04-25 04:01 | -13.19782 | -74.00472 | 35778 ft | 455 kts | 101° |
| 2026-04-25 04:01 | -13.21213 | -73.94156 | 35746 ft | 455 kts | 101° |
| 2026-04-25 04:02 | -13.22642 | -73.87842 | 35734 ft | 456 kts | 101° |
| 2026-04-25 04:02 | -13.24072 | -73.81525 | 35717 ft | 455 kts | 101° |
| 2026-04-25 04:03 | -13.25497 | -73.75221 | 35681 ft | 456 kts | 101° |
| 2026-04-25 04:03 | -13.26929 | -73.68885 | 35712 ft | 455 kts | 101° |
| 2026-04-25 04:04 | -13.28346 | -73.62601 | 35729 ft | 456 kts | 101° |
| 2026-04-25 04:04 | -13.29767 | -73.56274 | 35774 ft | 456 kts | 101° |
| 2026-04-25 04:05 | -13.31186 | -73.49948 | 35799 ft | 456 kts | 101° |
| 2026-04-25 04:05 | -13.32611 | -73.43592 | 35786 ft | 457 kts | 101° |
| 2026-04-25 04:06 | -13.34030 | -73.37256 | 35754 ft | 457 kts | 101° |
| 2026-04-25 04:06 | -13.35440 | -73.30961 | 35717 ft | 458 kts | 101° |
| 2026-04-25 04:07 | -13.36850 | -73.24662 | 35692 ft | 458 kts | 101° |
| 2026-04-25 04:07 | -13.38257 | -73.18369 | 35695 ft | 457 kts | 101° |
| 2026-04-25 04:08 | -13.39635 | -73.12199 | 35715 ft | 458 kts | 101° |
| 2026-04-25 04:08 | -13.41035 | -73.05912 | 35737 ft | 458 kts | 101° |
| 2026-04-25 04:09 | -13.42455 | -72.99520 | 35755 ft | 458 kts | 101° |
| 2026-04-25 04:09 | -13.43860 | -72.93195 | 35747 ft | 459 kts | 101° |
| 2026-04-25 04:10 | -13.45270 | -72.86856 | 35731 ft | 455 kts | 101° |
| 2026-04-25 04:10 | -13.46837 | -72.80585 | 35713 ft | 455 kts | 103° |
| 2026-04-25 04:11 | -13.49375 | -72.71234 | 35687 ft | 454 kts | 103° |
| 2026-04-25 04:12 | -13.51061 | -72.64997 | 34958 ft | 457 kts | 103° |
| 2026-04-25 04:12 | -13.51897 | -72.61876 | 34232 ft | 453 kts | 104° |
| 2026-04-25 04:12 | -13.52718 | -72.58797 | 33637 ft | 446 kts | 103° |
| 2026-04-25 04:12 | -13.53530 | -72.55741 | 33068 ft | 439 kts | 104° |
| 2026-04-25 04:13 | -13.54321 | -72.52756 | 32548 ft | 432 kts | 104° |
| 2026-04-25 04:13 | -13.55102 | -72.49799 | 32026 ft | 426 kts | 104° |
| 2026-04-25 04:13 | -13.55872 | -72.46878 | 31488 ft | 422 kts | 104° |
| 2026-04-25 04:13 | -13.56629 | -72.44000 | 30949 ft | 418 kts | 104° |
| 2026-04-25 04:14 | -13.57383 | -72.41130 | 30417 ft | 413 kts | 104° |
| 2026-04-25 04:14 | -13.58123 | -72.38309 | 29892 ft | 409 kts | 104° |
| 2026-04-25 04:14 | -13.58852 | -72.35526 | 29367 ft | 407 kts | 104° |
| 2026-04-25 04:14 | -13.59581 | -72.32740 | 28847 ft | 402 kts | 104° |
| 2026-04-25 04:15 | -13.60309 | -72.29963 | 28327 ft | 399 kts | 104° |
| 2026-04-25 04:15 | -13.61022 | -72.27245 | 27795 ft | 396 kts | 104° |
| 2026-04-25 04:15 | -13.61730 | -72.24551 | 27274 ft | 392 kts | 104° |
| 2026-04-25 04:15 | -13.62445 | -72.21829 | 26755 ft | 390 kts | 104° |
| 2026-04-25 04:16 | -13.63146 | -72.19163 | 26240 ft | 388 kts | 104° |
| 2026-04-25 04:16 | -13.63839 | -72.16515 | 25717 ft | 385 kts | 104° |
| 2026-04-25 04:16 | -13.64525 | -72.13890 | 25203 ft | 381 kts | 103° |
| 2026-04-25 04:16 | -13.65211 | -72.11266 | 24687 ft | 378 kts | 103° |
| 2026-04-25 04:17 | -13.65888 | -72.08677 | 24161 ft | 376 kts | 103° |
| 2026-04-25 04:17 | -13.66569 | -72.06072 | 23631 ft | 374 kts | 103° |
| 2026-04-25 04:17 | -13.67231 | -72.03539 | 23123 ft | 371 kts | 103° |
| 2026-04-25 04:17 | -13.67907 | -72.00993 | 22606 ft | 368 kts | 104° |
| 2026-04-25 04:18 | -13.68683 | -71.98492 | 22127 ft | 366 kts | 109° |
| 2026-04-25 04:18 | -13.69756 | -71.96162 | 21766 ft | 362 kts | 117° |
| 2026-04-25 04:18 | -13.71030 | -71.93907 | 21717 ft | 363 kts | 119° |
| 2026-04-25 04:18 | -13.72332 | -71.91704 | 21720 ft | 366 kts | 120° |
| 2026-04-25 04:19 | -13.73664 | -71.89462 | 21732 ft | 358 kts | 119° |
| 2026-04-25 04:19 | -13.74916 | -71.87348 | 21729 ft | 343 kts | 119° |
| 2026-04-25 04:19 | -13.76144 | -71.85251 | 21503 ft | 341 kts | 118° |
| 2026-04-25 04:19 | -13.77182 | -71.83079 | 20959 ft | 339 kts | 109° |
| 2026-04-25 04:20 | -13.77771 | -71.80747 | 20314 ft | 333 kts | 97° |
| 2026-04-25 04:20 | -13.77840 | -71.78413 | 19682 ft | 325 kts | 84° |
| 2026-04-25 04:20 | -13.77290 | -71.76211 | 19099 ft | 319 kts | 65° |
| 2026-04-25 04:20 | -13.76093 | -71.74332 | 18507 ft | 315 kts | 51° |
| 2026-04-25 04:21 | -13.74552 | -71.72789 | 17811 ft | 312 kts | 40° |
| 2026-04-25 04:21 | -13.72821 | -71.71513 | 17415 ft | 294 kts | 35° |
| 2026-04-25 04:21 | -13.71104 | -71.70569 | 17281 ft | 271 kts | 23° |
| 2026-04-25 04:21 | -13.69348 | -71.70158 | 17026 ft | 244 kts | 8° |
| 2026-04-25 04:22 | -13.67730 | -71.70142 | 16739 ft | 220 kts | 359° |
| 2026-04-25 04:22 | -13.66277 | -71.70311 | 16492 ft | 198 kts | 354° |
| 2026-04-25 04:22 | -13.64989 | -71.70607 | 16311 ft | 179 kts | 346° |
| 2026-04-25 04:22 | -13.63861 | -71.71075 | 16083 ft | 172 kts | 338° |
| 2026-04-25 04:23 | -13.62838 | -71.71662 | 15735 ft | 166 kts | 331° |
| 2026-04-25 04:23 | -13.61925 | -71.72340 | 15444 ft | 157 kts | 324° |
| 2026-04-25 04:23 | -13.61131 | -71.73080 | 15139 ft | 154 kts | 318° |
| 2026-04-25 04:23 | -13.60427 | -71.73895 | 14782 ft | 154 kts | 312° |
| 2026-04-25 04:24 | -13.59808 | -71.74792 | 14438 ft | 151 kts | 306° |
| 2026-04-25 04:24 | -13.59312 | -71.75738 | 14148 ft | 151 kts | 298° |
| 2026-04-25 04:24 | -13.58905 | -71.76710 | 13902 ft | 148 kts | 295° |
| 2026-04-25 04:24 | -13.58517 | -71.77689 | 13706 ft | 148 kts | 295° |
| 2026-04-25 04:25 | -13.58123 | -71.78675 | 13547 ft | 147 kts | 295° |
| 2026-04-25 04:25 | -13.57734 | -71.79652 | 13425 ft | 148 kts | 295° |
| 2026-04-25 04:25 | -13.57352 | -71.80628 | 13301 ft | 148 kts | 295° |
| 2026-04-25 04:25 | -13.56969 | -71.81606 | 13176 ft | 148 kts | 295° |
| 2026-04-25 04:26 | -13.56620 | -71.82604 | 13053 ft | 148 kts | 292° |
| 2026-04-25 04:26 | -13.56288 | -71.83607 | 12925 ft | 147 kts | 292° |
| 2026-04-25 04:26 | -13.55951 | -71.84604 | 12783 ft | 147 kts | 292° |
| 2026-04-25 04:26 | -13.55598 | -71.85585 | 12633 ft | 147 kts | 296° |
| 2026-04-25 04:27 | -13.55119 | -71.86507 | 12471 ft | 145 kts | 305° |
| 2026-04-25 04:27 | -13.54578 | -71.87372 | 12309 ft | 145 kts | 304° |
| 2026-04-25 04:27 | -13.54140 | -71.88321 | 12073 ft | 148 kts | 289° |
| 2026-04-25 04:27 | -13.53999 | -71.89368 | 11613 ft | 155 kts | 270° |
| 2026-04-25 04:28 | -13.53938 | -71.90463 | 11209 ft | 154 kts | 280° |
| 2026-04-25 04:28 | -13.53812 | -71.91530 | 10917 ft | 148 kts | 277° |
| 2026-04-25 04:28 | -13.53712 | -71.92527 | 10769 ft | 143 kts | 277° |
| 2026-04-25 04:28 | -13.53620 | -71.93413 | 10783 ft | 97 kts | 276° |
| 2026-04-25 04:29 | -13.53575 | -71.93851 | 10805 ft | 34 kts | 276° |
| 2026-04-25 04:29 | -13.53588 | -71.93992 | 10812 ft | 20 kts | 245° |
| 2026-04-25 04:29 | -13.53667 | -71.94173 | 10820 ft | 22 kts | 249° |
| 2026-04-25 04:29 | -13.53663 | -71.94338 | 10826 ft | 26 kts | 276° |
| 2026-04-25 04:30 | -13.53685 | -71.94457 | 10831 ft | 17 kts | 194° |
| 2026-04-25 04:30 | -13.53763 | -71.94508 | 10834 ft | 9 kts | 265° |
| 2026-04-25 04:30 | -13.53764 | -71.94512 | 10835 ft | 0 kts | 262° |